Airfield :
LOGIN :

Register | Disclaimer

   EN    FR    IT 

 










Legend :    VFR   Marginal VFR   IFR   Intensive IFR   Very Intensive IFR
Visi :
Ceiling :
>= 8 km
>= 3000ft
5 to 8 km
1000 to 3000 ft
1500m to 5 km
500 to 1000 ft
800 to 1500m
200 to 500 ft
< 800m
< 200 ft
Symbols :   Thunderstorms  Fog  Heavy snow  Heavy precipitations  Wind > 20 kt
SIGMETs :     Misc.  Thunderstorms  Icing  Turbulence  Mountain Waves  Volcanic Ashes







- Airport Elevation : 412 ft
- IATA code : ADB


LTBJ - Adnan Menderes

CURRENT METAR :
  • 211820Z 02010KT CAVOK 12/05 Q1020 NOSIG RMK RWY16 36009KT

EXPIRED METARs :
  • 211750Z 02009KT CAVOK 12/06 Q1020 NOSIG RMK RWY16 36011KT
  • 211720Z 01010KT CAVOK 12/07 Q1020 NOSIG RMK RWY16 36009KT
  • 211650Z 01011KT CAVOK 12/07 Q1020 NOSIG
  • 211620Z 36012KT CAVOK 13/07 Q1020 NOSIG RMK RWY16 36009KT
  • 211550Z 01011KT 9999 FEW030 SCT180 13/08 Q1020 NOSIG RMK RWY16 35010KT
  • 211520Z 36012KT 9999 FEW030 SCT180 14/08 Q1020 NOSIG RMK RWY16 34009KT

TAF TAF LTBJ
Valid from the 21 at 18:00 until the 22 at 18:00 UTC


211640Z 2118/2218 35012KT CAVOK
BECMG 2118/2120 VRB02KT
PROB40 2203/2206 3200 BR FEW006
BECMG 2210/2212 36012KT SCT030 BKN200
No reported NOTAMs for that airfield.



MET'MAP, your aeronautical weather chart ! - Copyright ORBIFLY December 2007 - Disclaimer

ORBIFLY MET'MAP TEAM :

Programming & Development : Alexandra Zaïnal
Concept & Development : Baudouin d'Aumeries
Co-Development & Prog : Marc-Olivier Méhu
Technical & hardware support : Manuel Goepfert

Contact : metmap@orbifly.com




SOURCES & CREDITS :

   NOAA